POGODA: Poland

Lotnisko: Wroclaw Ii

METAR KOD: EPWR


METAR: EPWR 301330Z 27006KT 9999 BKN026 11/05 Q1025


BLOK
Pogoda METAR
301330Z
Dzien: 30, Godzina: 13:30 UTC.
27006KT
Wiatr z kierunku 270, o predkosci 11 km/h
9999
Widzialnosc pozioma ponad 10 km.
BKN026
5/8 - 7/8 pokrycia nieba, chmurami o podstawie: 780 metrow
11/05
Temperatura: powietrze 11°C, punkt rosy 5°C . Wilgotnosc wzgledna 45 %
Q1025
Cisnienie: 1025 hPa

Pogoda na innym lotnisku

Pogoda Gdansk-Rebiechowo WEATHER Poland  
Pogoda Katowice WEATHER Poland  
Pogoda Krakow WEATHER Poland  
Pogoda Poznan WEATHER Poland  
Pogoda Rzeszow-Jasionka WEATHER Poland  
Pogoda Szczecin WEATHER Poland  
Pogoda Warszawa-Okecie WEATHER Poland  
Pogoda Wroclaw Ii WEATHER Poland  

Pogoda w inny kraju

Strona startowa

(C) by GREGOR 2007
Ogłoszenia Towarzyskie